sensor_id;sensor_type;location;lat;lon;timestamp;pressure;altitude;pressure_sealevel;temperature;humidity
71666;BME280;59503;53.486;10.196;2023-06-01T00:00:31;102184.56;;;11.66;100.00
71666;BME280;59503;53.486;10.196;2023-06-01T00:02:56;102170.47;;;11.64;100.00
71666;BME280;59503;53.486;10.196;2023-06-01T00:05:21;102173.44;;;11.50;100.00
71666;BME280;59503;53.486;10.196;2023-06-01T00:07:47;102174.88;;;11.48;100.00
71666;BME280;59503;53.486;10.196;2023-06-01T00:10:13;102161.16;;;11.23;100.00
71666;BME280;59503;53.486;10.196;2023-06-01T00:12:39;102171.38;;;11.26;100.00
71666;BME280;59503;53.486;10.196;2023-06-01T00:15:05;102183.41;;;11.25;100.00
71666;BME280;59503;53.486;10.196;2023-06-01T00:17:31;102172.03;;;11.23;100.00
71666;BME280;59503;53.486;10.196;2023-06-01T00:19:57;102166.06;;;11.09;100.00
71666;BME280;59503;53.486;10.196;2023-06-01T00:22:22;102174.88;;;11.06;100.00
71666;BME280;59503;53.486;10.196;2023-06-01T00:24:49;102178.66;;;11.14;100.00
71666;BME280;59503;53.486;10.196;2023-06-01T00:27:15;102168.09;;;11.12;100.00
71666;BME280;59503;53.486;10.196;2023-06-01T00:29:41;102165.91;;;11.06;100.00
71666;BME280;59503;53.486;10.196;2023-06-01T00:32:06;102178.22;;;11.12;100.00
71666;BME280;59503;53.486;10.196;2023-06-01T00:34:32;102176.88;;;11.18;100.00
71666;BME280;59503;53.486;10.196;2023-06-01T00:36:57;102171.16;;;11.11;100.00
71666;BME280;59503;53.486;10.196;2023-06-01T00:39:22;102177.50;;;11.23;100.00
71666;BME280;59503;53.486;10.196;2023-06-01T00:41:48;102168.19;;;11.24;100.00
71666;BME280;59503;53.486;10.196;2023-06-01T00:44:13;102169.19;;;11.20;100.00
71666;BME280;59503;53.486;10.196;2023-06-01T00:46:39;102171.91;;;11.20;100.00
71666;BME280;59503;53.486;10.196;2023-06-01T00:49:04;102178.59;;;11.22;100.00
71666;BME280;59503;53.486;10.196;2023-06-01T00:51:31;102169.53;;;11.18;100.00
71666;BME280;59503;53.486;10.196;2023-06-01T00:53:57;102172.03;;;11.23;100.00
71666;BME280;59503;53.486;10.196;2023-06-01T00:56:23;102172.19;;;11.27;100.00
71666;BME280;59503;53.486;10.196;2023-06-01T00:58:49;102160.50;;;11.26;100.00
71666;BME280;59503;53.486;10.196;2023-06-01T01:01:14;102167.19;;;11.29;100.00
71666;BME280;59503;53.486;10.196;2023-06-01T01:03:48;102166.75;;;11.27;100.00
71666;BME280;59503;53.486;10.196;2023-06-01T01:06:37;102171.94;;;11.41;100.00
71666;BME280;59503;53.486;10.196;2023-06-01T01:09:17;102166.00;;;11.39;100.00
71666;BME280;59503;53.486;10.196;2023-06-01T01:11:51;102173.84;;;11.40;100.00
71666;BME280;59503;53.486;10.196;2023-06-01T01:14:23;102176.16;;;11.29;100.00
71666;BME280;59503;53.486;10.196;2023-06-01T01:20:08;102166.47;;;11.20;100.00
71666;BME280;59503;53.486;10.196;2023-06-01T01:25:30;102162.47;;;11.17;100.00
71666;BME280;59503;53.486;10.196;2023-06-01T01:30:56;102161.09;;;11.11;100.00
71666;BME280;59503;53.486;10.196;2023-06-01T01:33:24;102162.84;;;11.07;100.00
71666;BME280;59503;53.486;10.196;2023-06-01T01:35:51;102160.47;;;11.06;100.00
71666;BME280;59503;53.486;10.196;2023-06-01T01:38:17;102153.97;;;10.98;100.00
71666;BME280;59503;53.486;10.196;2023-06-01T01:40:42;102163.31;;;11.09;100.00
71666;BME280;59503;53.486;10.196;2023-06-01T01:43:08;102163.66;;;11.08;100.00
71666;BME280;59503;53.486;10.196;2023-06-01T01:45:33;102170.34;;;11.10;100.00
71666;BME280;59503;53.486;10.196;2023-06-01T01:48:09;102148.97;;;11.00;100.00
71666;BME280;59503;53.486;10.196;2023-06-01T01:50:51;102155.78;;;11.15;100.00
71666;BME280;59503;53.486;10.196;2023-06-01T01:53:18;102152.91;;;11.11;100.00
71666;BME280;59503;53.486;10.196;2023-06-01T01:55:48;102152.91;;;11.11;100.00
71666;BME280;59503;53.486;10.196;2023-06-01T01:58:15;102148.78;;;11.05;100.00
71666;BME280;59503;53.486;10.196;2023-06-01T02:00:42;102142.28;;;10.98;100.00
71666;BME280;59503;53.486;10.196;2023-06-01T02:03:15;102154.88;;;11.02;100.00
71666;BME280;59503;53.486;10.196;2023-06-01T02:05:41;102145.34;;;10.96;100.00
71666;BME280;59503;53.486;10.196;2023-06-01T02:08:07;102140.41;;;10.90;100.00
71666;BME280;59503;53.486;10.196;2023-06-01T02:10:32;102142.13;;;10.94;100.00
71666;BME280;59503;53.486;10.196;2023-06-01T02:12:58;102141.09;;;10.87;100.00
71666;BME280;59503;53.486;10.196;2023-06-01T02:15:23;102145.00;;;10.98;100.00
71666;BME280;59503;53.486;10.196;2023-06-01T02:17:49;102138.03;;;10.88;100.00
71666;BME280;59503;53.486;10.196;2023-06-01T02:20:15;102132.03;;;10.74;100.00
71666;BME280;59503;53.486;10.196;2023-06-01T02:22:40;102145.84;;;10.90;100.00
71666;BME280;59503;53.486;10.196;2023-06-01T02:25:06;102141.34;;;10.94;100.00
71666;BME280;59503;53.486;10.196;2023-06-01T02:27:31;102134.94;;;10.98;100.00
71666;BME280;59503;53.486;10.196;2023-06-01T02:29:57;102120.09;;;10.87;100.00
71666;BME280;59503;53.486;10.196;2023-06-01T02:32:22;102131.91;;;10.91;100.00
71666;BME280;59503;53.486;10.196;2023-06-01T02:34:48;102126.88;;;10.81;100.00
71666;BME280;59503;53.486;10.196;2023-06-01T02:37:13;102135.31;;;10.88;100.00
71666;BME280;59503;53.486;10.196;2023-06-01T02:39:38;102132.84;;;10.95;100.00
71666;BME280;59503;53.486;10.196;2023-06-01T02:42:04;102131.25;;;10.94;100.00
71666;BME280;59503;53.486;10.196;2023-06-01T02:44:30;102134.03;;;10.86;100.00
71666;BME280;59503;53.486;10.196;2023-06-01T02:46:55;102127.16;;;10.88;100.00
71666;BME280;59503;53.486;10.196;2023-06-01T02:49:21;102121.19;;;10.95;100.00
71666;BME280;59503;53.486;10.196;2023-06-01T02:51:46;102130.44;;;10.94;100.00
71666;BME280;59503;53.486;10.196;2023-06-01T02:54:12;102128.00;;;11.01;100.00
71666;BME280;59503;53.486;10.196;2023-06-01T02:56:37;102126.38;;;11.08;100.00
71666;BME280;59503;53.486;10.196;2023-06-01T02:59:02;102120.66;;;11.01;100.00
71666;BME280;59503;53.486;10.196;2023-06-01T03:01:28;102122.91;;;10.99;100.00
71666;BME280;59503;53.486;10.196;2023-06-01T03:03:58;102117.47;;;10.99;100.00
71666;BME280;59503;53.486;10.196;2023-06-01T03:06:23;102123.50;;;11.05;100.00
71666;BME280;59503;53.486;10.196;2023-06-01T03:08:50;102114.75;;;10.99;100.00
71666;BME280;59503;53.486;10.196;2023-06-01T03:11:16;102119.38;;;10.99;100.00
71666;BME280;59503;53.486;10.196;2023-06-01T03:13:41;102120.47;;;11.06;100.00
71666;BME280;59503;53.486;10.196;2023-06-01T03:16:06;102116.78;;;11.02;100.00
71666;BME280;59503;53.486;10.196;2023-06-01T03:18:32;102117.59;;;11.03;100.00
71666;BME280;59503;53.486;10.196;2023-06-01T03:20:57;102111.53;;;10.97;100.00
71666;BME280;59503;53.486;10.196;2023-06-01T03:23:23;102111.28;;;11.11;100.00
71666;BME280;59503;53.486;10.196;2023-06-01T03:25:48;102110.03;;;11.08;100.00
71666;BME280;59503;53.486;10.196;2023-06-01T03:28:13;102096.25;;;11.13;100.00
71666;BME280;59503;53.486;10.196;2023-06-01T03:30:39;102097.94;;;11.18;100.00
71666;BME280;59503;53.486;10.196;2023-06-01T03:33:04;102105.50;;;11.12;100.00
71666;BME280;59503;53.486;10.196;2023-06-01T03:35:30;102110.75;;;11.17;100.00
71666;BME280;59503;53.486;10.196;2023-06-01T03:37:55;102112.97;;;11.03;100.00
71666;BME280;59503;53.486;10.196;2023-06-01T03:40:20;102105.84;;;11.11;100.00
71666;BME280;59503;53.486;10.196;2023-06-01T03:42:47;102110.69;;;11.05;100.00
71666;BME280;59503;53.486;10.196;2023-06-01T03:45:14;102105.91;;;11.02;100.00
71666;BME280;59503;53.486;10.196;2023-06-01T03:47:41;102100.28;;;11.07;100.00
71666;BME280;59503;53.486;10.196;2023-06-01T03:50:08;102104.19;;;11.18;100.00
71666;BME280;59503;53.486;10.196;2023-06-01T03:52:34;102099.72;;;11.14;100.00
71666;BME280;59503;53.486;10.196;2023-06-01T03:55:01;102097.16;;;11.17;100.00
71666;BME280;59503;53.486;10.196;2023-06-01T03:57:27;102094.09;;;11.19;100.00
71666;BME280;59503;53.486;10.196;2023-06-01T03:59:53;102094.16;;;11.10;100.00
71666;BME280;59503;53.486;10.196;2023-06-01T04:02:19;102099.03;;;11.05;100.00
71666;BME280;59503;53.486;10.196;2023-06-01T04:04:47;102093.50;;;11.13;100.00
71666;BME280;59503;53.486;10.196;2023-06-01T04:07:13;102089.66;;;11.14;100.00
71666;BME280;59503;53.486;10.196;2023-06-01T04:09:49;102094.91;;;11.19;100.00
71666;BME280;59503;53.486;10.196;2023-06-01T04:12:15;102087.53;;;11.20;100.00
71666;BME280;59503;53.486;10.196;2023-06-01T04:14:41;102088.13;;;11.25;100.00
71666;BME280;59503;53.486;10.196;2023-06-01T04:17:06;102099.94;;;11.29;100.00
71666;BME280;59503;53.486;10.196;2023-06-01T04:19:33;102106.06;;;11.26;100.00
71666;BME280;59503;53.486;10.196;2023-06-01T04:21:59;102091.06;;;11.20;100.00
71666;BME280;59503;53.486;10.196;2023-06-01T04:24:24;102087.41;;;11.16;100.00
71666;BME280;59503;53.486;10.196;2023-06-01T04:26:50;102095.16;;;11.26;100.00
71666;BME280;59503;53.486;10.196;2023-06-01T04:29:16;102098.22;;;11.25;100.00
71666;BME280;59503;53.486;10.196;2023-06-01T04:31:45;102098.16;;;11.34;100.00
71666;BME280;59503;53.486;10.196;2023-06-01T04:34:10;102097.34;;;11.33;100.00
71666;BME280;59503;53.486;10.196;2023-06-01T04:36:35;102097.06;;;11.47;100.00
71666;BME280;59503;53.486;10.196;2023-06-01T04:39:08;102088.47;;;11.57;100.00
71666;BME280;59503;53.486;10.196;2023-06-01T04:41:34;102084.38;;;11.51;100.00
71666;BME280;59503;53.486;10.196;2023-06-01T04:44:02;102090.34;;;11.65;100.00
71666;BME280;59503;53.486;10.196;2023-06-01T04:46:31;102090.53;;;11.60;100.00
71666;BME280;59503;53.486;10.196;2023-06-01T04:48:57;102086.91;;;11.56;100.00
71666;BME280;59503;53.486;10.196;2023-06-01T04:51:23;102079.03;;;11.54;100.00
71666;BME280;59503;53.486;10.196;2023-06-01T04:53:51;102085.28;;;11.55;100.00
71666;BME280;59503;53.486;10.196;2023-06-01T04:56:18;102085.97;;;11.52;100.00
71666;BME280;59503;53.486;10.196;2023-06-01T04:58:45;102084.59;;;11.46;100.00
71666;BME280;59503;53.486;10.196;2023-06-01T05:01:12;102070.31;;;11.49;100.00
71666;BME280;59503;53.486;10.196;2023-06-01T05:03:41;102079.38;;;11.53;100.00
71666;BME280;59503;53.486;10.196;2023-06-01T05:06:07;102071.00;;;11.58;100.00
71666;BME280;59503;53.486;10.196;2023-06-01T05:08:32;102067.22;;;11.71;100.00
71666;BME280;59503;53.486;10.196;2023-06-01T05:10:58;102054.28;;;11.80;100.00
71666;BME280;59503;53.486;10.196;2023-06-01T05:13:24;102064.97;;;11.85;100.00
71666;BME280;59503;53.486;10.196;2023-06-01T05:15:49;102070.44;;;11.97;100.00
71666;BME280;59503;53.486;10.196;2023-06-01T05:18:14;102061.91;;;11.86;100.00
71666;BME280;59503;53.486;10.196;2023-06-01T05:20:40;102056.34;;;11.83;100.00
71666;BME280;59503;53.486;10.196;2023-06-01T05:23:05;102058.41;;;11.86;100.00
71666;BME280;59503;53.486;10.196;2023-06-01T05:25:31;102060.91;;;11.91;100.00
71666;BME280;59503;53.486;10.196;2023-06-01T05:27:57;102045.19;;;11.64;100.00
71666;BME280;59503;53.486;10.196;2023-06-01T05:30:22;102063.06;;;11.85;100.00
71666;BME280;59503;53.486;10.196;2023-06-01T05:32:47;102051.84;;;11.99;100.00
71666;BME280;59503;53.486;10.196;2023-06-01T05:35:13;102049.09;;;11.99;100.00
71666;BME280;59503;53.486;10.196;2023-06-01T05:37:38;102053.38;;;11.88;100.00
71666;BME280;59503;53.486;10.196;2023-06-01T05:40:04;102055.13;;;11.92;100.00
71666;BME280;59503;53.486;10.196;2023-06-01T05:42:32;102055.38;;;11.99;100.00
71666;BME280;59503;53.486;10.196;2023-06-01T05:44:57;102049.22;;;12.02;100.00
71666;BME280;59503;53.486;10.196;2023-06-01T05:47:23;102049.78;;;11.96;100.00
71666;BME280;59503;53.486;10.196;2023-06-01T05:49:48;102051.16;;;12.14;100.00
71666;BME280;59503;53.486;10.196;2023-06-01T05:52:14;102051.41;;;12.33;100.00
71666;BME280;59503;53.486;10.196;2023-06-01T05:54:39;102055.25;;;12.32;100.00
71666;BME280;59503;53.486;10.196;2023-06-01T05:57:05;102052.75;;;12.39;100.00
71666;BME280;59503;53.486;10.196;2023-06-01T05:59:31;102057.63;;;12.33;100.00
71666;BME280;59503;53.486;10.196;2023-06-01T06:01:56;102050.25;;;12.34;100.00
71666;BME280;59503;53.486;10.196;2023-06-01T06:04:22;102056.03;;;12.57;100.00
71666;BME280;59503;53.486;10.196;2023-06-01T06:06:47;102056.38;;;12.55;99.38
71666;BME280;59503;53.486;10.196;2023-06-01T06:09:13;102061.47;;;12.69;99.75
71666;BME280;59503;53.486;10.196;2023-06-01T06:11:40;102053.59;;;12.79;99.00
71666;BME280;59503;53.486;10.196;2023-06-01T06:14:05;102044.72;;;12.82;96.90
71666;BME280;59503;53.486;10.196;2023-06-01T06:16:31;102046.78;;;12.85;95.90
71666;BME280;59503;53.486;10.196;2023-06-01T06:18:56;102049.97;;;12.75;96.81
71666;BME280;59503;53.486;10.196;2023-06-01T06:21:21;102067.81;;;12.85;95.94
71666;BME280;59503;53.486;10.196;2023-06-01T06:23:49;102055.88;;;12.77;96.25
71666;BME280;59503;53.486;10.196;2023-06-01T06:26:14;102067.59;;;12.78;95.32
71666;BME280;59503;53.486;10.196;2023-06-01T06:28:39;102064.53;;;12.55;95.16
71666;BME280;59503;53.486;10.196;2023-06-01T06:31:05;102062.84;;;12.63;96.05
71666;BME280;59503;53.486;10.196;2023-06-01T06:33:31;102061.78;;;12.79;95.92
71666;BME280;59503;53.486;10.196;2023-06-01T06:35:56;102062.75;;;12.47;95.22
71666;BME280;59503;53.486;10.196;2023-06-01T06:38:21;102063.88;;;12.58;94.98
71666;BME280;59503;53.486;10.196;2023-06-01T06:40:47;102062.06;;;12.50;95.32
71666;BME280;59503;53.486;10.196;2023-06-01T06:43:13;102072.75;;;12.31;95.55
71666;BME280;59503;53.486;10.196;2023-06-01T06:45:38;102063.19;;;12.37;96.67
71666;BME280;59503;53.486;10.196;2023-06-01T06:48:04;102040.94;;;12.11;97.30
71666;BME280;59503;53.486;10.196;2023-06-01T06:50:30;102057.53;;;12.42;96.94
71666;BME280;59503;53.486;10.196;2023-06-01T06:52:56;102056.03;;;12.57;97.10
71666;BME280;59503;53.486;10.196;2023-06-01T06:55:21;102049.78;;;12.68;96.59
71666;BME280;59503;53.486;10.196;2023-06-01T06:57:47;102055.97;;;12.81;96.40
71666;BME280;59503;53.486;10.196;2023-06-01T07:00:13;102054.72;;;12.90;96.10
71666;BME280;59503;53.486;10.196;2023-06-01T07:02:41;102060.84;;;13.11;94.46
71666;BME280;59503;53.486;10.196;2023-06-01T07:05:07;102063.72;;;13.30;93.74
71666;BME280;59503;53.486;10.196;2023-06-01T07:07:33;102054.47;;;13.35;93.65
71666;BME280;59503;53.486;10.196;2023-06-01T07:09:59;102055.22;;;13.20;93.11
71666;BME280;59503;53.486;10.196;2023-06-01T07:12:24;102054.47;;;13.35;93.79
71666;BME280;59503;53.486;10.196;2023-06-01T07:14:50;102048.00;;;13.27;93.47
71666;BME280;59503;53.486;10.196;2023-06-01T07:17:15;102055.97;;;13.32;92.51
71666;BME280;59503;53.486;10.196;2023-06-01T07:19:40;102049.81;;;13.35;93.00
71666;BME280;59503;53.486;10.196;2023-06-01T07:22:06;102061.81;;;13.46;92.40
71666;BME280;59503;53.486;10.196;2023-06-01T07:24:32;102058.03;;;13.35;93.73
71666;BME280;59503;53.486;10.196;2023-06-01T07:26:57;102064.06;;;13.56;90.72
71666;BME280;59503;53.486;10.196;2023-06-01T07:29:22;102053.03;;;13.53;90.99
71666;BME280;59503;53.486;10.196;2023-06-01T07:31:50;102052.88;;;13.61;89.34
71666;BME280;59503;53.486;10.196;2023-06-01T07:34:16;102049.53;;;13.68;88.86
71666;BME280;59503;53.486;10.196;2023-06-01T07:36:41;102047.66;;;13.56;88.95
71666;BME280;59503;53.486;10.196;2023-06-01T07:39:10;102055.34;;;13.66;89.58
71666;BME280;59503;53.486;10.196;2023-06-01T07:41:36;102046.47;;;13.85;89.00
71666;BME280;59503;53.486;10.196;2023-06-01T07:44:02;102045.66;;;13.85;87.97
71666;BME280;59503;53.486;10.196;2023-06-01T07:46:27;102047.50;;;14.12;86.60
71666;BME280;59503;53.486;10.196;2023-06-01T07:48:53;102048.13;;;14.21;85.50
71666;BME280;59503;53.486;10.196;2023-06-01T07:51:18;102048.66;;;14.11;85.08
71666;BME280;59503;53.486;10.196;2023-06-01T07:53:44;102048.84;;;13.87;87.32
71666;BME280;59503;53.486;10.196;2023-06-01T07:56:09;102038.09;;;13.94;87.57
71666;BME280;59503;53.486;10.196;2023-06-01T07:58:36;102042.25;;;14.34;84.89
71666;BME280;59503;53.486;10.196;2023-06-01T08:01:03;102052.81;;;14.51;83.89
71666;BME280;59503;53.486;10.196;2023-06-01T08:03:29;102051.84;;;14.44;85.04
71666;BME280;59503;53.486;10.196;2023-06-01T08:05:59;102046.63;;;14.54;84.26
71666;BME280;59503;53.486;10.196;2023-06-01T08:08:26;102056.69;;;14.50;84.39
71666;BME280;59503;53.486;10.196;2023-06-01T08:10:51;102055.13;;;14.34;86.02
71666;BME280;59503;53.486;10.196;2023-06-01T08:13:17;102064.84;;;14.31;87.29
71666;BME280;59503;53.486;10.196;2023-06-01T08:15:44;102053.84;;;14.47;86.99
71666;BME280;59503;53.486;10.196;2023-06-01T08:18:13;102054.13;;;14.42;86.13
71666;BME280;59503;53.486;10.196;2023-06-01T08:20:39;102056.75;;;14.54;85.53
71666;BME280;59503;53.486;10.196;2023-06-01T08:23:04;102047.59;;;14.00;86.60
71666;BME280;59503;53.486;10.196;2023-06-01T08:25:30;102051.16;;;14.31;87.25
71666;BME280;59503;53.486;10.196;2023-06-01T08:27:55;102049.22;;;14.32;86.53
71666;BME280;59503;53.486;10.196;2023-06-01T08:30:21;102049.91;;;14.13;83.69
71666;BME280;59503;53.486;10.196;2023-06-01T08:32:47;102055.72;;;14.43;84.30
71666;BME280;59503;53.486;10.196;2023-06-01T08:35:14;102051.84;;;14.78;81.66
71666;BME280;59503;53.486;10.196;2023-06-01T08:37:40;102047.19;;;14.98;80.38
71666;BME280;59503;53.486;10.196;2023-06-01T08:40:06;102055.41;;;14.98;80.94
71666;BME280;59503;53.486;10.196;2023-06-01T08:45:07;102047.72;;;15.04;79.48
71666;BME280;59503;53.486;10.196;2023-06-01T08:47:35;102048.59;;;14.73;79.62
71666;BME280;59503;53.486;10.196;2023-06-01T08:50:01;102042.06;;;14.97;81.16
71666;BME280;59503;53.486;10.196;2023-06-01T08:52:28;102045.38;;;15.06;81.12
71666;BME280;59503;53.486;10.196;2023-06-01T08:54:58;102051.16;;;15.20;81.53
71666;BME280;59503;53.486;10.196;2023-06-01T08:57:28;102025.84;;;15.07;79.29
71666;BME280;59503;53.486;10.196;2023-06-01T08:59:55;102042.94;;;15.01;79.35
71666;BME280;59503;53.486;10.196;2023-06-01T09:02:20;102039.59;;;15.30;79.55
71666;BME280;59503;53.486;10.196;2023-06-01T09:04:46;102042.06;;;15.35;79.22
71666;BME280;59503;53.486;10.196;2023-06-01T09:07:12;102047.75;;;15.07;79.33
71666;BME280;59503;53.486;10.196;2023-06-01T09:09:38;102051.28;;;15.08;79.55
71666;BME280;59503;53.486;10.196;2023-06-01T09:12:18;102044.22;;;15.26;79.80
71666;BME280;59503;53.486;10.196;2023-06-01T09:14:43;102045.75;;;15.23;78.30
71666;BME280;59503;53.486;10.196;2023-06-01T09:17:21;102038.09;;;15.13;79.71
71666;BME280;59503;53.486;10.196;2023-06-01T09:19:49;102050.50;;;15.26;78.85
71666;BME280;59503;53.486;10.196;2023-06-01T09:22:15;102032.53;;;14.71;81.04
71666;BME280;59503;53.486;10.196;2023-06-01T09:24:40;102031.13;;;14.62;81.89
71666;BME280;59503;53.486;10.196;2023-06-01T09:27:06;102041.41;;;14.84;81.52
71666;BME280;59503;53.486;10.196;2023-06-01T09:29:32;102050.50;;;15.07;80.95
71666;BME280;59503;53.486;10.196;2023-06-01T09:31:59;102044.69;;;15.09;80.20
71666;BME280;59503;53.486;10.196;2023-06-01T09:34:25;102039.50;;;15.04;79.89
71666;BME280;59503;53.486;10.196;2023-06-01T09:36:53;102040.19;;;15.39;78.13
71666;BME280;59503;53.486;10.196;2023-06-01T09:39:23;102034.38;;;15.63;76.84
71666;BME280;59503;53.486;10.196;2023-06-01T09:41:52;102039.06;;;15.40;77.72
71666;BME280;59503;53.486;10.196;2023-06-01T09:44:32;102033.47;;;15.36;78.12
71666;BME280;59503;53.486;10.196;2023-06-01T09:47:08;102030.16;;;15.46;77.45
71666;BME280;59503;53.486;10.196;2023-06-01T09:49:43;102037.19;;;15.66;75.79
71666;BME280;59503;53.486;10.196;2023-06-01T09:52:11;102037.34;;;15.54;73.74
71666;BME280;59503;53.486;10.196;2023-06-01T09:54:48;102037.25;;;15.70;72.80
71666;BME280;59503;53.486;10.196;2023-06-01T09:57:24;102032.31;;;15.56;72.36
71666;BME280;59503;53.486;10.196;2023-06-01T09:59:50;102034.22;;;15.75;72.20
71666;BME280;59503;53.486;10.196;2023-06-01T10:02:18;102030.94;;;15.88;71.69
71666;BME280;59503;53.486;10.196;2023-06-01T10:04:48;102033.06;;;15.98;70.03
71666;BME280;59503;53.486;10.196;2023-06-01T10:07:15;102024.88;;;15.79;68.80
71666;BME280;59503;53.486;10.196;2023-06-01T10:09:44;102033.50;;;16.00;68.91
71666;BME280;59503;53.486;10.196;2023-06-01T10:12:10;102025.63;;;15.76;70.78
71666;BME280;59503;53.486;10.196;2023-06-01T10:14:37;102026.59;;;16.10;69.64
71666;BME280;59503;53.486;10.196;2023-06-01T10:17:03;102021.16;;;16.13;69.30
71666;BME280;59503;53.486;10.196;2023-06-01T10:19:29;102024.28;;;16.38;69.61
71666;BME280;59503;53.486;10.196;2023-06-01T10:21:57;102013.88;;;16.25;67.79
71666;BME280;59503;53.486;10.196;2023-06-01T10:24:22;102009.06;;;15.92;68.22
71666;BME280;59503;53.486;10.196;2023-06-01T10:27:05;102010.28;;;16.21;68.09
71666;BME280;59503;53.486;10.196;2023-06-01T10:29:33;102009.06;;;16.18;67.15
71666;BME280;59503;53.486;10.196;2023-06-01T10:31:59;102009.63;;;16.27;67.34
71666;BME280;59503;53.486;10.196;2023-06-01T10:34:42;102013.31;;;15.89;69.50
71666;BME280;59503;53.486;10.196;2023-06-01T10:39:34;102001.78;;;16.03;69.38
71666;BME280;59503;53.486;10.196;2023-06-01T10:52:33;102007.66;;;16.54;68.42
71666;BME280;59503;53.486;10.196;2023-06-01T10:57:41;102001.66;;;16.45;68.09
71666;BME280;59503;53.486;10.196;2023-06-01T11:05:47;102005.44;;;16.10;68.79
71666;BME280;59503;53.486;10.196;2023-06-01T11:13:18;101988.75;;;15.96;68.77
71666;BME280;59503;53.486;10.196;2023-06-01T11:21:17;101989.31;;;16.58;65.23
71666;BME280;59503;53.486;10.196;2023-06-01T11:23:46;101990.84;;;16.85;64.68
71666;BME280;59503;53.486;10.196;2023-06-01T11:26:17;101992.03;;;17.54;60.87
71666;BME280;59503;53.486;10.196;2023-06-01T11:28:43;101989.41;;;17.71;57.89
71666;BME280;59503;53.486;10.196;2023-06-01T11:31:10;101996.91;;;17.74;57.71
71666;BME280;59503;53.486;10.196;2023-06-01T11:33:39;101998.44;;;18.73;57.03
71666;BME280;59503;53.486;10.196;2023-06-01T11:36:06;101994.41;;;18.64;53.89
71666;BME280;59503;53.486;10.196;2023-06-01T11:38:37;101987.94;;;19.07;55.07
71666;BME280;59503;53.486;10.196;2023-06-01T11:41:03;101996.19;;;19.07;54.25
71666;BME280;59503;53.486;10.196;2023-06-01T11:43:30;101977.25;;;17.72;56.90
71666;BME280;59503;53.486;10.196;2023-06-01T11:46:00;101987.97;;;18.38;55.92
71666;BME280;59503;53.486;10.196;2023-06-01T11:48:26;101975.94;;;18.06;56.63
71666;BME280;59503;53.486;10.196;2023-06-01T11:50:51;101993.03;;;17.79;58.53
71666;BME280;59503;53.486;10.196;2023-06-01T11:53:16;101977.44;;;17.50;59.17
71666;BME280;59503;53.486;10.196;2023-06-01T11:55:49;101986.28;;;17.73;58.21
71666;BME280;59503;53.486;10.196;2023-06-01T12:00:50;101992.06;;;17.57;59.23
71666;BME280;59503;53.486;10.196;2023-06-01T12:03:16;101987.81;;;17.30;60.27
71666;BME280;59503;53.486;10.196;2023-06-01T12:05:42;101986.06;;;16.82;62.91
71666;BME280;59503;53.486;10.196;2023-06-01T12:08:15;101984.66;;;17.28;60.38
71666;BME280;59503;53.486;10.196;2023-06-01T12:10:43;101993.66;;;17.25;60.04
71666;BME280;59503;53.486;10.196;2023-06-01T12:13:10;101993.41;;;17.37;60.16
71666;BME280;59503;53.486;10.196;2023-06-01T12:15:36;101973.69;;;16.95;61.37
71666;BME280;59503;53.486;10.196;2023-06-01T12:18:03;101982.97;;;17.53;59.66
71666;BME280;59503;53.486;10.196;2023-06-01T12:20:34;101986.38;;;18.37;55.52
71666;BME280;59503;53.486;10.196;2023-06-01T12:23:14;101976.22;;;18.45;55.20
71666;BME280;59503;53.486;10.196;2023-06-01T12:25:57;101970.16;;;18.94;54.59
71666;BME280;59503;53.486;10.196;2023-06-01T12:28:25;101971.22;;;18.65;54.46
71666;BME280;59503;53.486;10.196;2023-06-01T12:31:11;101965.75;;;18.10;56.57
71666;BME280;59503;53.486;10.196;2023-06-01T12:33:39;101974.31;;;17.98;57.24
71666;BME280;59503;53.486;10.196;2023-06-01T12:36:06;101970.16;;;18.87;56.34
71666;BME280;59503;53.486;10.196;2023-06-01T12:38:49;101976.31;;;18.59;55.56
71666;BME280;59503;53.486;10.196;2023-06-01T12:41:14;101967.03;;;18.23;57.43
71666;BME280;59503;53.486;10.196;2023-06-01T12:43:47;101965.69;;;18.61;55.58
71666;BME280;59503;53.486;10.196;2023-06-01T12:48:45;101964.75;;;19.22;54.70
71666;BME280;59503;53.486;10.196;2023-06-01T12:51:12;101971.00;;;19.12;52.87
71666;BME280;59503;53.486;10.196;2023-06-01T12:53:37;101963.97;;;19.28;53.49
71666;BME280;59503;53.486;10.196;2023-06-01T12:56:03;101969.91;;;19.69;51.54
71666;BME280;59503;53.486;10.196;2023-06-01T12:58:30;101971.91;;;19.72;52.03
71666;BME280;59503;53.486;10.196;2023-06-01T13:00:56;101961.09;;;18.86;53.32
71666;BME280;59503;53.486;10.196;2023-06-01T13:03:21;101967.28;;;18.62;54.31
71666;BME280;59503;53.486;10.196;2023-06-01T13:05:47;101961.16;;;18.28;54.78
71666;BME280;59503;53.486;10.196;2023-06-01T13:08:15;101951.91;;;17.96;56.83
71666;BME280;59503;53.486;10.196;2023-06-01T13:10:41;101951.06;;;17.89;57.99
71666;BME280;59503;53.486;10.196;2023-06-01T13:13:07;101974.06;;;18.17;59.11
71666;BME280;59503;53.486;10.196;2023-06-01T13:15:33;101950.16;;;18.28;58.13
71666;BME280;59503;53.486;10.196;2023-06-01T13:17:59;101973.00;;;18.32;57.29
71666;BME280;59503;53.486;10.196;2023-06-01T13:20:24;101976.47;;;19.01;55.53
71666;BME280;59503;53.486;10.196;2023-06-01T13:22:51;101977.28;;;19.09;54.91